createdAt,value
2018-05-25T00:02:26.898Z,32.47
2018-05-25T00:04:54.432Z,31.30
2018-05-25T00:07:23.916Z,32.40
2018-05-25T00:09:51.457Z,32.30
2018-05-25T00:12:18.986Z,32.37
2018-05-25T00:14:46.524Z,32.93
2018-05-25T00:17:14.835Z,32.83
2018-05-25T00:19:42.380Z,33.70
2018-05-25T00:22:09.950Z,33.73
2018-05-25T00:24:37.481Z,34.83
2018-05-25T00:27:05.786Z,36.20
2018-05-25T00:29:33.329Z,37.00
2018-05-25T00:32:00.856Z,37.57
2018-05-25T00:34:28.473Z,38.17
2018-05-25T00:36:56.002Z,40.57
2018-05-25T00:39:24.301Z,43.53
2018-05-25T00:44:26.499Z,42.37
2018-05-25T00:46:54.027Z,43.27
2018-05-25T00:49:22.331Z,42.53
2018-05-25T00:51:49.871Z,42.67
2018-05-25T00:54:18.285Z,43.57
2018-05-25T00:56:45.920Z,43.67
2018-05-25T00:59:13.473Z,44.70
2018-05-25T01:01:41.776Z,42.87
2018-05-25T01:04:09.319Z,46.53
2018-05-25T01:06:36.855Z,44.30
2018-05-25T01:09:07.080Z,43.30
2018-05-25T01:11:35.488Z,42.73
2018-05-25T01:14:03.024Z,41.20
2018-05-25T01:16:31.330Z,42.07
2018-05-25T01:18:58.853Z,40.13
2018-05-25T01:21:27.164Z,40.17
2018-05-25T01:23:54.681Z,40.90
2018-05-25T01:26:22.204Z,40.37
2018-05-25T01:28:49.850Z,41.17
2018-05-25T01:31:17.378Z,39.47
2018-05-25T01:33:45.687Z,39.03
2018-05-25T01:36:13.226Z,37.73
2018-05-25T01:38:41.633Z,38.73
2018-05-25T01:41:09.173Z,38.63
2018-05-25T01:43:36.707Z,38.60
2018-05-25T01:46:05.012Z,39.10
2018-05-25T01:48:32.541Z,39.43
2018-05-25T01:51:00.079Z,39.53
2018-05-25T01:53:27.607Z,38.70
2018-05-25T01:55:55.119Z,37.63
2018-05-25T01:58:22.737Z,37.53
2018-05-25T02:00:50.268Z,37.43
2018-05-25T02:03:17.799Z,38.13
2018-05-25T02:05:45.351Z,37.57
2018-05-25T02:08:12.978Z,37.77
2018-05-25T02:10:40.523Z,38.43
2018-05-25T02:13:08.058Z,38.57
2018-05-25T02:15:36.363Z,38.77
2018-05-25T02:18:03.923Z,36.97
2018-05-25T02:20:31.465Z,40.10
2018-05-25T02:22:59.751Z,44.43
2018-05-25T02:25:27.322Z,39.13
2018-05-25T02:27:54.886Z,39.50
2018-05-25T02:30:22.421Z,39.77
2018-05-25T02:32:50.715Z,39.17
2018-05-25T02:35:18.255Z,38.20
2018-05-25T02:37:47.039Z,39.53
2018-05-25T02:40:15.450Z,40.57
2018-05-25T02:42:42.985Z,42.37
2018-05-25T02:45:11.267Z,38.87
2018-05-25T02:47:39.557Z,39.23
2018-05-25T02:50:07.099Z,40.17
2018-05-25T02:52:35.398Z,40.77
2018-05-25T02:55:02.937Z,38.50
2018-05-25T02:57:31.243Z,40.20
2018-05-25T02:59:58.773Z,38.10
2018-05-25T03:02:27.173Z,38.90
2018-05-25T03:04:54.719Z,38.90
2018-05-25T03:07:22.315Z,37.00
2018-05-25T03:09:49.840Z,39.00
2018-05-25T03:12:17.387Z,37.50
2018-05-25T03:14:45.696Z,37.67
2018-05-25T03:17:13.225Z,36.93
2018-05-25T03:19:41.635Z,38.43
2018-05-25T03:22:09.153Z,37.20
2018-05-25T03:24:36.678Z,36.03
2018-05-25T03:27:04.218Z,36.10
2018-05-25T03:29:31.752Z,36.00
2018-05-25T03:32:01.028Z,36.10
2018-05-25T03:34:28.638Z,36.53
2018-05-25T03:36:56.153Z,35.63
2018-05-25T03:39:23.823Z,34.43
2018-05-25T03:41:51.416Z,33.73
2018-05-25T03:44:18.947Z,34.47
2018-05-25T03:46:47.260Z,32.50
2018-05-25T03:49:14.796Z,32.17
2018-05-25T03:51:43.090Z,34.30
2018-05-25T03:54:10.620Z,33.20
2018-05-25T03:56:38.932Z,34.93
2018-05-25T03:59:18.306Z,33.13
2018-05-25T04:01:55.891Z,33.37
2018-05-25T04:04:23.412Z,34.00
2018-05-25T04:06:50.937Z,33.37
2018-05-25T04:09:18.542Z,34.27
2018-05-25T04:11:46.068Z,32.37
2018-05-25T04:14:14.369Z,33.03
2018-05-25T04:16:41.948Z,32.83
2018-05-25T04:19:09.506Z,32.63
2018-05-25T04:21:37.024Z,31.97
2018-05-25T04:24:05.324Z,32.80
2018-05-25T04:26:33.613Z,31.73
2018-05-25T04:29:01.155Z,32.27
2018-05-25T04:31:29.594Z,30.10
2018-05-25T04:33:57.124Z,29.87
2018-05-25T04:36:24.646Z,29.03
2018-05-25T04:38:52.953Z,30.10
2018-05-25T04:41:20.498Z,28.50
2018-05-25T04:43:48.785Z,28.90
2018-05-25T04:46:16.327Z,28.20
2018-05-25T04:48:44.620Z,27.77
2018-05-25T04:51:12.159Z,27.00
2018-05-25T04:53:40.465Z,26.70
2018-05-25T04:56:08.034Z,26.80
2018-05-25T04:58:35.591Z,26.47
2018-05-25T05:01:03.144Z,25.27
2018-05-25T05:03:30.672Z,25.20
2018-05-25T05:05:58.981Z,26.57
2018-05-25T05:08:26.543Z,26.73
2018-05-25T05:10:54.079Z,25.10
2018-05-25T05:13:22.371Z,26.57
2018-05-25T05:15:49.912Z,25.27
2018-05-25T05:18:18.200Z,25.37
2018-05-25T05:20:46.493Z,25.80
2018-05-25T05:23:14.041Z,24.17
2018-05-25T05:25:41.572Z,23.67
2018-05-25T05:28:09.110Z,21.70
2018-05-25T05:30:36.653Z,22.77
2018-05-25T05:33:04.174Z,21.73
2018-05-25T05:35:32.578Z,21.67
2018-05-25T05:38:00.136Z,22.17
2018-05-25T05:40:28.013Z,21.33
2018-05-25T05:42:55.570Z,20.53
2018-05-25T05:45:23.101Z,21.37
2018-05-25T05:47:51.383Z,20.27
2018-05-25T05:50:19.679Z,20.77
2018-05-25T05:52:47.219Z,20.33
2018-05-25T05:55:15.615Z,19.10
2018-05-25T05:57:43.177Z,18.50
2018-05-25T06:00:10.713Z,18.50
2018-05-25T06:02:39.131Z,18.67
2018-05-25T06:05:06.677Z,18.00
2018-05-25T06:07:34.213Z,16.50
2018-05-25T06:10:02.527Z,17.77
2018-05-25T06:12:30.079Z,18.07
2018-05-25T06:14:57.737Z,18.53
2018-05-25T06:17:25.309Z,17.23
2018-05-25T06:19:52.836Z,17.70
2018-05-25T06:22:21.145Z,16.63
2018-05-25T06:24:48.668Z,16.30
2018-05-25T06:27:16.963Z,16.40
2018-05-25T06:29:44.537Z,17.53
2018-05-25T06:32:12.107Z,16.97
2018-05-25T06:34:39.641Z,18.30
2018-05-25T06:37:07.941Z,16.57
2018-05-25T06:39:35.464Z,17.60
2018-05-25T06:42:03.773Z,16.87
2018-05-25T06:44:31.301Z,17.63
2018-05-25T06:47:00.937Z,17.83
2018-05-25T06:49:28.508Z,17.13
2018-05-25T06:51:56.043Z,17.80
2018-05-25T06:54:24.342Z,17.13
2018-05-25T06:56:51.863Z,17.07
2018-05-25T06:59:20.388Z,17.60
2018-05-25T07:01:48.033Z,17.50
2018-05-25T07:04:15.694Z,16.50
2018-05-25T07:06:43.238Z,18.10
2018-05-25T07:09:11.547Z,18.33
2018-05-25T07:11:39.077Z,18.03
2018-05-25T07:14:07.484Z,17.83
2018-05-25T07:16:35.029Z,17.23
2018-05-25T07:19:03.328Z,16.83
2018-05-25T07:21:30.907Z,16.50
2018-05-25T07:23:58.434Z,17.00
2018-05-25T07:26:26.007Z,15.67
2018-05-25T07:28:53.549Z,15.93
2018-05-25T07:31:21.093Z,15.33
2018-05-25T07:33:49.386Z,15.40
2018-05-25T07:36:17.781Z,13.93
2018-05-25T07:38:45.330Z,13.30
2018-05-25T07:41:13.621Z,14.83
2018-05-25T07:43:41.159Z,14.33
2018-05-25T07:46:09.556Z,14.30
2018-05-25T07:48:37.120Z,15.47
2018-05-25T07:51:04.684Z,14.90
2018-05-25T07:53:32.210Z,14.77
2018-05-25T07:56:00.503Z,14.43
2018-05-25T07:58:28.070Z,12.87
2018-05-25T08:00:55.643Z,13.70
2018-05-25T08:03:23.178Z,12.30
2018-05-25T08:05:51.580Z,11.50
2018-05-25T08:08:19.120Z,12.37
2018-05-25T08:10:47.418Z,11.13
2018-05-25T08:13:14.952Z,10.47
2018-05-25T08:15:43.260Z,10.10
2018-05-25T08:18:10.788Z,11.90
2018-05-25T08:20:39.092Z,11.53
2018-05-25T08:23:06.655Z,10.47
2018-05-25T08:25:34.192Z,10.80
2018-05-25T08:28:02.597Z,10.20
2018-05-25T08:30:30.131Z,10.43
2018-05-25T08:32:58.419Z,10.57
2018-05-25T08:35:25.963Z,8.33
2018-05-25T08:37:54.258Z,10.40
2018-05-25T08:40:21.784Z,8.33
2018-05-25T08:42:50.072Z,7.27
2018-05-25T08:45:18.381Z,8.30
2018-05-25T08:47:45.897Z,7.57
2018-05-25T08:50:14.941Z,6.43
2018-05-25T08:52:42.458Z,5.83
2018-05-25T08:55:10.781Z,6.73
2018-05-25T08:57:38.307Z,5.90
2018-05-25T09:00:06.595Z,5.27
2018-05-25T09:02:34.123Z,5.07
2018-05-25T09:05:01.744Z,7.00
2018-05-25T09:07:29.265Z,7.17
2018-05-25T09:09:57.556Z,7.70
2018-05-25T09:12:25.159Z,8.77
2018-05-25T09:14:54.063Z,5.10
2018-05-25T09:17:21.589Z,7.13
2018-05-25T09:19:49.130Z,5.70
2018-05-25T09:22:17.422Z,6.20
2018-05-25T09:24:44.952Z,5.93
2018-05-25T09:27:13.266Z,5.63
2018-05-25T09:29:40.794Z,6.63
2018-05-25T09:32:09.081Z,5.77
2018-05-25T09:34:36.612Z,6.47
2018-05-25T09:37:04.935Z,6.70
2018-05-25T09:39:32.450Z,6.37
2018-05-25T09:41:59.983Z,6.77
2018-05-25T09:44:27.498Z,6.80
2018-05-25T09:46:55.025Z,7.10
2018-05-25T09:49:22.538Z,8.00
2018-05-25T09:51:50.067Z,7.60
2018-05-25T09:54:18.356Z,8.30
2018-05-25T09:56:57.663Z,8.07
2018-05-25T09:59:25.222Z,9.33
2018-05-25T10:01:52.726Z,9.03
2018-05-25T10:04:20.259Z,9.50
2018-05-25T10:06:48.546Z,9.93
2018-05-25T10:09:16.844Z,8.87
2018-05-25T10:11:44.368Z,8.80
2018-05-25T10:14:12.653Z,8.80
2018-05-25T10:16:40.950Z,9.60
2018-05-25T10:19:08.503Z,9.40
2018-05-25T10:21:36.031Z,10.83
2018-05-25T10:24:03.550Z,10.07
2018-05-25T10:26:31.082Z,10.23
2018-05-25T10:28:58.614Z,9.53
2018-05-25T10:31:26.128Z,10.47
2018-05-25T10:33:53.644Z,9.93
2018-05-25T10:36:21.924Z,10.30
2018-05-25T10:38:50.209Z,9.67
2018-05-25T10:41:18.543Z,10.87
2018-05-25T10:43:46.062Z,11.17
2018-05-25T10:46:13.589Z,10.63
2018-05-25T10:48:41.942Z,11.80
2018-05-25T10:51:09.465Z,12.00
2018-05-25T10:53:36.991Z,12.03
2018-05-25T10:56:05.288Z,10.80
2018-05-25T10:58:32.830Z,10.80
2018-05-25T11:01:01.118Z,10.20
2018-05-25T11:03:29.520Z,11.03
2018-05-25T11:05:57.045Z,12.27
2018-05-25T11:08:25.343Z,12.10
2018-05-25T11:10:52.889Z,10.90
2018-05-25T11:13:21.182Z,11.40
2018-05-25T11:15:48.728Z,12.33
2018-05-25T11:18:17.023Z,11.77
2018-05-25T11:20:44.551Z,12.93
2018-05-25T11:23:12.164Z,14.07
2018-05-25T11:25:39.719Z,9.43
2018-05-25T11:28:07.240Z,8.40
2018-05-25T11:30:35.537Z,8.87
2018-05-25T11:33:03.104Z,9.33
2018-05-25T11:35:30.616Z,8.10
2018-05-25T11:37:58.130Z,5.33
2018-05-25T11:40:25.714Z,7.70
2018-05-25T11:42:53.229Z,7.37
2018-05-25T11:45:21.515Z,7.07
2018-05-25T11:47:49.054Z,7.73
2018-05-25T11:50:17.339Z,6.37
2018-05-25T11:52:45.658Z,5.80
2018-05-25T11:55:13.190Z,6.63
2018-05-25T11:57:40.706Z,5.60
2018-05-25T12:00:08.217Z,6.10
2018-05-25T12:02:35.750Z,5.87
2018-05-25T12:05:04.051Z,6.00
2018-05-25T12:07:31.564Z,5.60
2018-05-25T12:09:59.111Z,6.73
2018-05-25T12:12:26.629Z,5.80
2018-05-25T12:14:54.150Z,6.10
2018-05-25T12:17:21.678Z,5.43
2018-05-25T12:19:49.199Z,6.00
2018-05-25T12:22:17.493Z,6.40
2018-05-25T12:24:45.020Z,5.83
2018-05-25T12:27:13.316Z,6.07
2018-05-25T12:29:40.832Z,6.00
2018-05-25T12:32:08.357Z,5.47
2018-05-25T12:34:35.883Z,5.30
2018-05-25T12:37:04.159Z,5.50
2018-05-25T12:39:32.456Z,5.23
2018-05-25T12:41:59.986Z,7.83
2018-05-25T12:44:27.501Z,8.00
2018-05-25T12:46:55.031Z,5.00
2018-05-25T12:49:22.552Z,4.67
2018-05-25T12:51:50.073Z,4.17
2018-05-25T12:54:17.618Z,4.60
2018-05-25T12:56:45.137Z,4.80
2018-05-25T12:59:13.445Z,4.50
2018-05-25T13:01:41.733Z,5.27
2018-05-25T13:04:09.260Z,5.03
2018-05-25T13:06:37.578Z,4.50
2018-05-25T13:09:05.225Z,3.87
2018-05-25T13:11:32.749Z,3.80
2018-05-25T13:14:00.268Z,4.60
2018-05-25T13:16:27.803Z,4.60
2018-05-25T13:18:56.094Z,4.73
2018-05-25T13:21:23.601Z,4.80
2018-05-25T13:23:51.128Z,3.83
2018-05-25T13:26:18.648Z,4.67
2018-05-25T13:28:46.930Z,4.57
2018-05-25T13:31:15.229Z,4.67
2018-05-25T13:33:42.761Z,4.43
2018-05-25T13:36:11.046Z,4.00
2018-05-25T13:42:01.258Z,4.00
2018-05-25T13:44:29.564Z,4.00
2018-05-25T13:46:57.089Z,4.10
2018-05-25T13:49:25.418Z,3.97
2018-05-25T13:51:52.933Z,4.07
2018-05-25T13:54:21.216Z,3.93
2018-05-25T13:56:49.500Z,4.30
2018-05-25T13:59:17.048Z,4.23
2018-05-25T14:01:45.343Z,4.50
2018-05-25T14:04:12.855Z,4.70
2018-05-25T14:06:40.379Z,4.47
2018-05-25T14:09:07.943Z,4.70
2018-05-25T14:11:35.461Z,4.40
2018-05-25T14:14:03.876Z,4.67
2018-05-25T14:16:31.427Z,4.40
2018-05-25T14:18:58.948Z,4.63
2018-05-25T14:21:26.489Z,4.63
2018-05-25T14:23:54.010Z,4.10
2018-05-25T14:26:21.536Z,4.60
2018-05-25T14:28:49.930Z,4.07
2018-05-25T14:31:18.215Z,4.13
2018-05-25T14:33:45.732Z,3.70
2018-05-25T14:36:13.293Z,4.03
2018-05-25T14:38:40.811Z,3.67
2018-05-25T14:41:08.330Z,3.63
2018-05-25T14:43:36.655Z,3.60
2018-05-25T14:46:04.211Z,4.73
2018-05-25T14:48:31.725Z,4.40
2018-05-25T14:51:00.033Z,4.50
2018-05-25T14:53:27.555Z,4.70
2018-05-25T14:55:55.104Z,4.30
2018-05-25T14:58:22.635Z,4.30
2018-05-25T15:00:50.182Z,4.33
2018-05-25T15:03:17.711Z,4.30
2018-05-25T15:05:46.001Z,4.47
2018-05-25T15:08:14.285Z,4.30
2018-05-25T15:10:41.807Z,4.40
2018-05-25T15:13:09.611Z,4.30
2018-05-25T15:15:37.129Z,4.57
2018-05-25T15:18:04.646Z,4.20
2018-05-25T15:20:32.179Z,3.90
2018-05-25T15:23:00.461Z,3.70
2018-05-25T15:25:28.744Z,3.70
2018-05-25T15:27:57.148Z,3.77
2018-05-25T15:30:24.660Z,4.37
2018-05-25T15:32:52.953Z,4.33
2018-05-25T15:35:21.238Z,3.60
2018-05-25T15:37:49.530Z,4.27
2018-05-25T15:40:17.039Z,4.10
2018-05-25T15:42:44.560Z,4.20
2018-05-25T15:45:12.130Z,4.37
2018-05-25T15:47:39.688Z,4.37
2018-05-25T15:50:07.208Z,4.77
2018-05-25T15:52:35.487Z,4.20
2018-05-25T15:55:03.765Z,3.77
2018-05-25T15:57:32.162Z,4.17
2018-05-25T15:59:59.733Z,4.37
2018-05-25T16:02:27.251Z,4.20
2018-05-25T16:04:55.557Z,4.30
2018-05-25T16:07:23.109Z,3.87
2018-05-25T16:09:50.656Z,4.67
2018-05-25T16:12:18.955Z,4.37
2018-05-25T16:14:46.494Z,4.23
2018-05-25T16:17:14.806Z,4.47
2018-05-25T16:19:42.354Z,4.57
2018-05-25T16:22:09.974Z,4.13
2018-05-25T16:24:37.502Z,4.57
2018-05-25T16:27:05.038Z,4.30
2018-05-25T16:29:32.578Z,4.60
2018-05-25T16:32:00.882Z,4.13
2018-05-25T16:34:28.413Z,4.40
2018-05-25T16:36:56.692Z,4.07
2018-05-25T16:39:24.994Z,4.70
2018-05-25T16:41:52.724Z,5.00
2018-05-25T16:44:21.016Z,4.50
2018-05-25T16:46:49.312Z,4.50
2018-05-25T16:49:16.853Z,4.40
2018-05-25T16:51:45.151Z,4.13
2018-05-25T16:54:12.671Z,4.13
2018-05-25T16:56:40.264Z,5.23
2018-05-25T16:59:07.801Z,4.70
2018-05-25T17:01:36.217Z,4.10
2018-05-25T17:04:03.775Z,4.07
2018-05-25T17:06:31.339Z,4.33
2018-05-25T17:08:58.863Z,4.03
2018-05-25T17:11:27.167Z,3.80
2018-05-25T17:13:54.681Z,4.43
2018-05-25T17:16:23.711Z,4.43
2018-05-25T17:18:52.105Z,4.37
2018-05-25T17:21:19.659Z,4.17
2018-05-25T17:23:47.181Z,3.93
2018-05-25T17:26:14.717Z,4.50
2018-05-25T17:28:42.236Z,4.00
2018-05-25T17:31:10.528Z,4.20
2018-05-25T17:33:38.080Z,4.03
2018-05-25T17:36:05.626Z,4.50
2018-05-25T17:38:33.212Z,4.20
2018-05-25T17:41:00.768Z,3.60
2018-05-25T17:43:28.297Z,4.13
2018-05-25T17:45:56.603Z,4.30
2018-05-25T17:48:24.126Z,4.47
2018-05-25T17:50:51.647Z,3.87
2018-05-25T17:53:19.213Z,3.87
2018-05-25T17:55:46.957Z,4.40
2018-05-25T17:58:14.477Z,4.17
2018-05-25T18:00:42.775Z,4.07
2018-05-25T18:03:10.399Z,4.97
2018-05-25T18:05:37.901Z,5.30
2018-05-25T18:08:05.465Z,4.00
2018-05-25T18:10:32.999Z,4.23
2018-05-25T18:13:01.294Z,4.20
2018-05-25T18:15:30.513Z,4.43
2018-05-25T18:17:58.047Z,4.27
2018-05-25T18:20:26.330Z,4.20
2018-05-25T18:22:54.226Z,4.20
2018-05-25T18:25:21.764Z,4.53
2018-05-25T18:27:49.291Z,4.10
2018-05-25T18:30:17.579Z,3.63
2018-05-25T18:32:45.880Z,3.70
2018-05-25T18:35:13.393Z,4.53
2018-05-25T18:37:41.733Z,4.20
2018-05-25T18:40:09.265Z,4.10
2018-05-25T18:42:37.557Z,4.10
2018-05-25T18:45:05.157Z,4.20
2018-05-25T18:47:32.693Z,3.90
2018-05-25T18:50:00.219Z,4.20
2018-05-25T18:52:28.545Z,4.20
2018-05-25T18:54:56.062Z,4.50
2018-05-25T18:57:24.347Z,3.90
2018-05-25T18:59:57.496Z,4.57
2018-05-25T19:02:25.025Z,4.30
2018-05-25T19:04:52.613Z,4.50
2018-05-25T19:07:20.125Z,4.40
2018-05-25T19:09:47.638Z,4.30
2018-05-25T19:12:16.669Z,4.70
2018-05-25T19:14:44.966Z,4.80
2018-05-25T19:17:12.527Z,4.30
2018-05-25T19:19:40.798Z,5.20
2018-05-25T19:22:08.950Z,5.23
2018-05-25T19:24:37.274Z,7.03
2018-05-25T19:27:04.839Z,10.60
2018-05-25T19:29:32.380Z,11.07
2018-05-25T19:31:59.938Z,12.47
2018-05-25T19:34:27.460Z,12.40
2018-05-25T19:36:55.762Z,15.87
2018-05-25T19:39:23.288Z,16.43
2018-05-25T19:41:50.832Z,17.90
2018-05-25T19:44:18.373Z,22.70
2018-05-25T19:46:45.906Z,21.63
2018-05-25T19:49:13.438Z,23.10
2018-05-25T19:51:45.652Z,24.70
2018-05-25T19:54:13.209Z,28.07
2018-05-25T19:56:40.770Z,29.13
2018-05-25T19:59:08.310Z,29.27
2018-05-25T20:01:36.701Z,31.90
2018-05-25T20:04:04.252Z,31.33
2018-05-25T20:06:31.801Z,31.87
2018-05-25T20:09:00.095Z,34.93
2018-05-25T20:11:27.672Z,34.97
2018-05-25T20:13:55.217Z,33.20
2018-05-25T20:16:22.754Z,34.73
2018-05-25T20:18:51.067Z,36.00
2018-05-25T20:21:18.623Z,36.77
2018-05-25T20:23:46.151Z,38.33
2018-05-25T20:26:14.471Z,38.37
2018-05-25T20:28:42.012Z,41.47
2018-05-25T20:31:09.580Z,41.20
2018-05-25T20:33:37.140Z,41.00
2018-05-25T20:36:04.675Z,42.77
2018-05-25T20:38:32.972Z,40.80
2018-05-25T20:41:00.498Z,43.13
2018-05-25T20:43:28.793Z,43.33
2018-05-25T20:45:57.108Z,44.10
2018-05-25T20:48:24.634Z,45.03
2018-05-25T20:50:52.939Z,47.03
2018-05-25T20:53:20.522Z,45.97
2018-05-25T20:55:48.009Z,48.57
2018-05-25T20:58:15.551Z,48.07
2018-05-25T21:00:43.081Z,46.77
2018-05-25T21:03:10.603Z,48.17
2018-05-25T21:05:38.905Z,50.17
2018-05-25T21:08:06.431Z,48.63
2018-05-25T21:10:34.939Z,48.93
2018-05-25T21:13:02.489Z,47.80
2018-05-25T21:15:30.785Z,50.07
2018-05-25T21:17:58.309Z,51.30
2018-05-25T21:20:25.846Z,53.10
2018-05-25T21:22:53.472Z,54.23
2018-05-25T21:25:21.007Z,57.40
2018-05-25T21:27:49.308Z,57.63
2018-05-25T21:30:16.828Z,52.80
2018-05-25T21:32:44.429Z,54.67
2018-05-25T21:35:11.996Z,56.43
2018-05-25T21:37:39.521Z,58.77
2018-05-25T21:40:07.809Z,59.20
2018-05-25T21:42:36.162Z,60.30
2018-05-25T21:45:03.645Z,59.07
2018-05-25T21:47:32.043Z,56.90
2018-05-25T21:49:59.584Z,57.07
2018-05-25T21:52:27.989Z,62.43
2018-05-25T21:54:55.526Z,64.93
2018-05-25T21:57:23.921Z,66.53
2018-05-25T21:59:51.444Z,62.87
2018-05-25T22:02:18.976Z,63.80
2018-05-25T22:04:46.516Z,65.50
2018-05-25T22:07:14.044Z,63.50
2018-05-25T22:09:42.327Z,60.50
2018-05-25T22:12:10.622Z,62.87
2018-05-25T22:14:38.184Z,63.93
2018-05-25T22:17:05.712Z,64.77
2018-05-25T22:19:34.131Z,66.13
2018-05-25T22:22:01.680Z,69.07
2018-05-25T22:24:29.233Z,73.10
2018-05-25T22:26:56.802Z,71.13
2018-05-25T22:29:24.361Z,73.77
2018-05-25T22:31:51.919Z,75.83
2018-05-25T22:34:19.460Z,75.43
2018-05-25T22:36:47.765Z,79.07
2018-05-25T22:39:15.346Z,74.80
2018-05-25T22:41:42.983Z,78.20
2018-05-25T22:44:22.602Z,77.60
2018-05-25T22:47:02.740Z,78.83
2018-05-25T22:49:42.079Z,78.97
2018-05-25T22:52:22.086Z,83.67
2018-05-25T22:54:52.112Z,81.77
2018-05-25T22:57:19.755Z,84.77
2018-05-25T22:59:47.295Z,82.23
2018-05-25T23:02:14.854Z,84.33
2018-05-25T23:04:43.168Z,79.57
2018-05-25T23:07:10.718Z,82.30
2018-05-25T23:09:38.277Z,79.87
2018-05-25T23:12:05.822Z,80.70
2018-05-25T23:14:33.360Z,79.13
2018-05-25T23:17:01.676Z,82.33
2018-05-25T23:19:29.212Z,80.13
2018-05-25T23:21:57.631Z,77.87
2018-05-25T23:24:25.148Z,69.47
2018-05-25T23:26:53.456Z,74.50
2018-05-25T23:29:21.013Z,74.77
2018-05-25T23:31:48.548Z,69.73
2018-05-25T23:34:16.845Z,67.47
2018-05-25T23:36:44.409Z,63.17
2018-05-25T23:39:11.943Z,63.93
2018-05-25T23:41:40.229Z,64.13
2018-05-25T23:44:08.543Z,63.57
2018-05-25T23:46:36.074Z,70.47
2018-05-25T23:49:03.602Z,69.67
2018-05-25T23:51:31.157Z,61.53
2018-05-25T23:53:58.675Z,68.23
2018-05-25T23:56:26.202Z,64.87
2018-05-25T23:58:53.745Z,63.40
